Time;durP1;ratioP1;P1;durP2;ratioP2;P2;SDS_P1;SDS_P2;PMS_P1;PMS_P2;Temp;Humidity;BMP_temperature;BMP_pressure;BME280_temperature;BME280_humidity;BME280_pressure;Samples;Min_cycle;Max_cycle;Signal;HPM_P1;HPM_P2
2024/03/09 00:00:26;;;;;;;19.85;9.50;;;;;;;-141.50;100.00;63355.56;4994847;28;20471;-80
2024/03/09 00:02:55;;;;;;;22.13;8.75;;;;;;;-141.50;100.00;63355.56;5010613;28;20050;-79
2024/03/09 00:05:24;;;;;;;21.38;9.50;;;;;;;-141.50;100.00;63355.56;4995048;28;20145;-81
2024/03/09 00:07:56;;;;;;;21.70;9.60;;;;;;;-141.50;100.00;63355.56;5012040;28;20053;-81
2024/03/09 00:10:24;;;;;;;22.67;9.77;;;;;;;-141.50;100.00;63355.56;4996047;28;20050;-81
2024/03/09 00:12:52;;;;;;;20.63;9.05;;;;;;;-141.50;100.00;63355.56;4994650;28;20090;-82
2024/03/09 00:15:23;;;;;;;18.45;8.82;;;;;;;-141.50;100.00;63355.56;5012766;28;20064;-79
2024/03/09 00:17:52;;;;;;;25.75;9.35;;;;;;;-141.50;100.00;63355.56;5010980;28;20057;-79
2024/03/09 00:20:21;;;;;;;21.00;9.48;;;;;;;-141.50;100.00;63355.56;4995197;28;20112;-83
2024/03/09 00:22:49;;;;;;;24.58;9.32;;;;;;;-141.50;100.00;63355.56;4997024;28;20060;-78
2024/03/09 00:25:15;;;;;;;19.00;9.35;;;;;;;-141.50;100.00;63355.56;4998296;28;20092;-78
2024/03/09 00:27:42;;;;;;;21.20;9.32;;;;;;;-141.50;100.00;63355.56;4989509;28;20062;-80
2024/03/09 00:30:18;;;;;;;25.45;9.30;;;;;;;-141.50;100.00;63355.56;5009266;28;20061;-81
2024/03/09 00:32:47;;;;;;;23.13;9.60;;;;;;;-141.50;100.00;63355.56;5008986;28;20452;-80
2024/03/09 00:35:14;;;;;;;21.90;10.10;;;;;;;-141.50;100.00;63355.56;5010051;28;20453;-79
2024/03/09 00:37:42;;;;;;;24.05;10.23;;;;;;;-141.50;100.00;63355.56;4992633;28;20054;-81
2024/03/09 00:40:10;;;;;;;20.35;9.70;;;;;;;-141.50;100.00;63355.56;4992217;28;20096;-80
2024/03/09 00:42:40;;;;;;;23.15;9.45;;;;;;;-141.50;100.00;63355.56;5009815;28;20508;-78
2024/03/09 00:45:09;;;;;;;24.80;9.55;;;;;;;-141.50;100.00;63355.56;5008721;28;20045;-80
2024/03/09 00:47:37;;;;;;;20.17;9.40;;;;;;;-141.50;100.00;63355.56;4987364;28;20058;-81
2024/03/09 00:50:08;;;;;;;21.08;9.00;;;;;;;-141.50;100.00;63355.56;5010045;28;20042;-83
2024/03/09 00:52:36;;;;;;;22.65;9.55;;;;;;;-141.50;100.00;63355.56;5009518;28;20072;-80
2024/03/09 00:55:10;;;;;;;21.77;9.07;;;;;;;-141.50;100.00;63355.56;5009145;28;20048;-80
2024/03/09 00:57:37;;;;;;;25.85;10.68;;;;;;;-141.50;100.00;63355.56;5010378;28;20069;-79
2024/03/09 01:00:15;;;;;;;21.02;8.85;;;;;;;-141.50;100.00;63355.56;4985093;28;20068;-79
2024/03/09 01:02:43;;;;;;;19.95;8.60;;;;;;;-141.50;100.00;63355.56;5008197;28;20058;-80
2024/03/09 01:05:12;;;;;;;18.15;8.35;;;;;;;-141.50;100.00;63355.56;5009729;28;20065;-79
2024/03/09 01:07:39;;;;;;;20.75;9.00;;;;;;;-141.50;100.00;63355.56;5009396;28;20414;-79
2024/03/09 01:10:07;;;;;;;23.15;9.20;;;;;;;-141.50;100.00;63355.56;5003962;28;20558;-79
2024/03/09 01:12:35;;;;;;;25.92;10.13;;;;;;;-141.50;100.00;63355.56;4994413;28;20060;-79
2024/03/09 01:15:04;;;;;;;21.00;8.85;;;;;;;-141.50;100.00;63355.56;5010907;28;20056;-80
2024/03/09 01:17:31;;;;;;;22.33;8.60;;;;;;;-141.50;100.00;63355.56;5014886;28;20127;-80
2024/03/09 01:19:58;;;;;;;22.33;8.93;;;;;;;-141.50;100.00;63355.56;4999089;28;20117;-79
2024/03/09 01:22:25;;;;;;;22.42;9.27;;;;;;;-141.50;100.00;63355.56;5013548;28;20060;-78
2024/03/09 01:24:52;;;;;;;22.33;9.10;;;;;;;-141.50;100.00;63355.56;5011164;28;20054;-80
2024/03/09 01:27:19;;;;;;;23.13;9.13;;;;;;;-141.50;100.00;63355.56;5010441;28;20057;-80
2024/03/09 01:29:47;;;;;;;17.83;8.52;;;;;;;-141.50;100.00;63355.56;4985758;28;20116;-78
2024/03/09 01:32:14;;;;;;;21.13;9.32;;;;;;;-141.50;100.00;63355.56;5010165;28;20128;-79
2024/03/09 01:34:42;;;;;;;18.80;8.60;;;;;;;-141.50;100.00;63355.56;4991076;28;20056;-79
2024/03/09 01:37:13;;;;;;;20.00;8.65;;;;;;;-141.50;100.00;63355.56;5010132;28;20053;-80
2024/03/09 01:39:40;;;;;;;16.17;7.93;;;;;;;-141.50;100.00;63355.56;5007567;28;20057;-78
2024/03/09 01:42:08;;;;;;;20.38;8.65;;;;;;;-141.50;100.00;63355.56;4992291;28;20053;-81
2024/03/09 01:44:35;;;;;;;18.98;8.48;;;;;;;-141.50;100.00;63355.56;5010822;28;20081;-79
2024/03/09 01:47:06;;;;;;;22.85;9.55;;;;;;;-141.50;100.00;63355.56;5008570;28;20050;-79
2024/03/09 01:49:37;;;;;;;18.42;8.48;;;;;;;-141.50;100.00;63355.56;4994040;28;20073;-79
2024/03/09 01:52:05;;;;;;;20.92;8.25;;;;;;;-141.50;100.00;63355.56;5007841;28;20069;-80
2024/03/09 01:54:34;;;;;;;20.88;8.80;;;;;;;-141.50;100.00;63355.56;4985862;28;20534;-79
2024/03/09 01:57:01;;;;;;;19.27;8.63;;;;;;;-141.50;100.00;63355.56;5003320;28;20077;-81
2024/03/09 01:59:29;;;;;;;24.48;8.80;;;;;;;-141.50;100.00;63355.56;5011997;28;20877;-80
2024/03/09 02:01:57;;;;;;;26.02;10.38;;;;;;;-141.50;100.00;63355.56;5004433;28;20045;-81
2024/03/09 02:04:28;;;;;;;20.58;9.27;;;;;;;-141.50;100.00;63355.56;4994864;28;20112;-77
2024/03/09 02:06:56;;;;;;;23.13;9.77;;;;;;;-141.50;100.00;63355.56;5010267;28;20070;-81
2024/03/09 02:09:25;;;;;;;21.02;9.30;;;;;;;-141.50;100.00;63355.56;4988615;28;20069;-80
2024/03/09 02:11:53;;;;;;;22.13;9.02;;;;;;;-141.50;100.00;63355.56;5008224;28;20063;-80
2024/03/09 02:14:21;;;;;;;21.92;9.43;;;;;;;-141.50;100.00;63355.56;5008476;28;20714;-80
2024/03/09 02:16:50;;;;;;;20.98;8.93;;;;;;;-141.50;100.00;63355.56;4978551;28;20061;-78
2024/03/09 02:19:17;;;;;;;22.88;9.57;;;;;;;-141.50;100.00;63355.56;5009827;28;20054;-79
2024/03/09 02:21:48;;;;;;;22.58;9.85;;;;;;;-141.50;100.00;63355.56;5008213;28;20543;-80
2024/03/09 02:24:20;;;;;;;26.30;10.32;;;;;;;-141.50;100.00;63355.56;4989701;28;20053;-78
2024/03/09 02:26:49;;;;;;;23.48;9.70;;;;;;;-141.50;100.00;63355.56;5007823;28;20065;-78
2024/03/09 02:29:18;;;;;;;25.20;9.38;;;;;;;-141.50;100.00;63355.56;5007862;28;20053;-80
2024/03/09 02:31:45;;;;;;;19.95;8.98;;;;;;;-141.50;100.00;63355.56;4990901;28;20112;-80
2024/03/09 02:34:12;;;;;;;23.90;9.95;;;;;;;-141.50;100.00;63355.56;5008143;28;20048;-80
2024/03/09 02:36:39;;;;;;;23.25;10.30;;;;;;;-141.50;100.00;63355.56;4991289;28;20049;-80
2024/03/09 02:39:09;;;;;;;21.70;9.38;;;;;;;-141.50;100.00;63355.56;4989432;28;20072;-81
2024/03/09 02:41:36;;;;;;;24.33;10.25;;;;;;;-141.50;100.00;63355.56;5007845;28;20061;-78
2024/03/09 02:44:04;;;;;;;20.88;9.38;;;;;;;-141.50;100.00;63355.56;4988108;28;20065;-81
2024/03/09 02:46:31;;;;;;;21.88;9.30;;;;;;;-141.50;100.00;63355.56;4992261;28;20547;-79
2024/03/09 02:48:59;;;;;;;19.95;9.63;;;;;;;-141.50;100.00;63355.56;4991334;28;20071;-76
2024/03/09 02:51:27;;;;;;;20.63;9.13;;;;;;;-141.50;100.00;63355.56;5015683;28;20045;-78
2024/03/09 02:53:53;;;;;;;24.20;9.88;;;;;;;-141.50;100.00;63355.56;5015595;28;20049;-80
2024/03/09 02:56:20;;;;;;;24.52;9.23;;;;;;;-141.50;100.00;63355.56;5009885;28;20056;-80
2024/03/09 02:58:48;;;;;;;24.23;9.13;;;;;;;-141.50;100.00;63355.56;5015034;28;20145;-79
2024/03/09 03:01:20;;;;;;;22.85;10.20;;;;;;;-141.50;100.00;63355.56;5012087;28;20047;-79
2024/03/09 03:03:49;;;;;;;20.77;9.07;;;;;;;-141.50;100.00;63355.56;5010970;28;20840;-80
2024/03/09 03:06:21;;;;;;;23.95;9.02;;;;;;;-141.50;100.00;63355.56;4992448;28;20049;-78
2024/03/09 03:08:50;;;;;;;19.95;8.88;;;;;;;-141.50;100.00;63355.56;4993523;28;20058;-81
2024/03/09 03:11:18;;;;;;;20.73;8.55;;;;;;;-141.50;100.00;63355.56;4991918;28;20145;-80
2024/03/09 03:13:46;;;;;;;23.02;8.82;;;;;;;-141.50;100.00;63355.56;4991152;28;20076;-78
2024/03/09 03:16:25;;;;;;;21.25;8.85;;;;;;;-141.50;100.00;63355.56;4968879;28;20667;-80
2024/03/09 03:18:53;;;;;;;20.80;9.00;;;;;;;-141.50;100.00;63355.56;4981171;28;20057;-78
2024/03/09 03:21:20;;;;;;;19.20;8.90;;;;;;;-141.50;100.00;63355.56;4991253;28;20050;-79
2024/03/09 03:23:50;;;;;;;19.95;9.13;;;;;;;-141.50;100.00;63355.56;5007211;28;20057;-79
2024/03/09 03:26:18;;;;;;;24.02;9.50;;;;;;;-141.50;100.00;63355.56;4992829;28;20046;-79
2024/03/09 03:28:49;;;;;;;24.70;9.13;;;;;;;-141.50;100.00;63355.56;5012403;28;20648;-78
2024/03/09 03:31:17;;;;;;;21.38;8.75;;;;;;;-141.50;100.00;63355.56;5002249;28;20705;-80
2024/03/09 03:33:47;;;;;;;21.27;9.27;;;;;;;-141.50;100.00;63355.56;5012275;28;20144;-77
2024/03/09 03:36:19;;;;;;;21.33;9.13;;;;;;;-141.50;100.00;63355.56;5011825;28;20042;-79
2024/03/09 03:38:47;;;;;;;22.27;9.27;;;;;;;-141.50;100.00;63355.56;4974990;28;20065;-79
2024/03/09 03:41:15;;;;;;;21.75;8.52;;;;;;;-141.50;100.00;63355.56;5012285;28;20046;-81
2024/03/09 03:43:45;;;;;;;20.45;8.98;;;;;;;-141.50;100.00;63355.56;4994189;28;20057;-79
2024/03/09 03:46:14;;;;;;;22.38;9.07;;;;;;;-141.50;100.00;63355.56;5012611;28;20053;-78
2024/03/09 03:48:44;;;;;;;23.88;8.80;;;;;;;-141.50;100.00;63355.56;4994597;28;20064;-79
2024/03/09 03:51:13;;;;;;;18.13;8.07;;;;;;;-141.50;100.00;63355.56;4994824;28;20069;-78
2024/03/09 03:53:44;;;;;;;18.92;9.18;;;;;;;-141.50;100.00;63355.56;4979739;28;20104;-79
2024/03/09 03:56:12;;;;;;;22.77;9.40;;;;;;;-141.50;100.00;63355.56;5011867;28;20049;-80
2024/03/09 03:58:44;;;;;;;20.60;8.40;;;;;;;-141.50;100.00;63355.56;4986433;28;20050;-79
2024/03/09 04:01:11;;;;;;;21.65;8.90;;;;;;;-141.50;100.00;63355.56;4977553;28;20061;-78
2024/03/09 04:03:37;;;;;;;18.17;8.50;;;;;;;-141.50;100.00;63355.56;5012804;28;20053;-80
2024/03/09 04:06:06;;;;;;;21.70;8.55;;;;;;;-141.50;100.00;63355.56;5012056;28;20046;-79
2024/03/09 04:08:33;;;;;;;22.63;9.02;;;;;;;-141.50;100.00;63355.56;4978808;28;20061;-79
2024/03/09 04:11:02;;;;;;;21.23;9.13;;;;;;;-141.50;100.00;63355.56;5012216;28;20562;-78
2024/03/09 04:13:30;;;;;;;19.42;8.77;;;;;;;-141.50;100.00;63355.56;4999318;28;20078;-77
2024/03/09 04:15:57;;;;;;;21.92;8.73;;;;;;;-141.50;100.00;63355.56;5011290;28;20129;-78
2024/03/09 04:18:28;;;;;;;20.15;8.80;;;;;;;-141.50;100.00;63355.56;5010457;28;20042;-77
2024/03/09 04:20:58;;;;;;;18.92;8.45;;;;;;;-141.50;100.00;63355.56;4992881;28;20054;-79
2024/03/09 04:23:25;;;;;;;18.30;8.80;;;;;;;-141.50;100.00;63355.56;5012277;28;20100;-79
2024/03/09 04:25:55;;;;;;;23.05;8.85;;;;;;;-141.50;100.00;63355.56;4976559;28;20068;-78
2024/03/09 04:28:27;;;;;;;18.15;8.63;;;;;;;-141.50;100.00;63355.56;5004844;28;20049;-79
2024/03/09 04:30:56;;;;;;;22.60;8.52;;;;;;;-141.50;100.00;63355.56;5009422;28;20054;-78
2024/03/09 04:33:24;;;;;;;20.05;8.25;;;;;;;-141.50;100.00;63355.56;5012897;28;20099;-80
2024/03/09 04:35:52;;;;;;;22.67;9.20;;;;;;;-141.50;100.00;63355.56;4993858;28;20081;-82
2024/03/09 04:38:20;;;;;;;19.23;8.40;;;;;;;-141.50;100.00;63355.56;5010029;28;20061;-79
2024/03/09 04:40:48;;;;;;;22.17;9.25;;;;;;;-141.50;100.00;63355.56;4986847;28;20161;-79
2024/03/09 04:43:18;;;;;;;18.95;8.65;;;;;;;-141.50;100.00;63355.56;5009589;28;20065;-82
2024/03/09 04:45:45;;;;;;;23.23;8.57;;;;;;;-141.50;100.00;63355.56;5007404;28;20052;-82
2024/03/09 04:48:13;;;;;;;19.77;8.70;;;;;;;-141.50;100.00;63355.56;5010615;28;20053;-82
2024/03/09 04:50:46;;;;;;;19.67;8.80;;;;;;;-141.50;100.00;63355.56;5009444;28;20062;-82
2024/03/09 04:53:14;;;;;;;19.73;9.40;;;;;;;-141.50;100.00;63355.56;5011392;28;20050;-81
2024/03/09 04:55:48;;;;;;;26.67;9.75;;;;;;;-141.50;100.00;63355.56;5021772;28;20068;-79
2024/03/09 04:58:17;;;;;;;21.52;9.15;;;;;;;-141.50;100.00;63355.56;5015585;28;20050;-78
2024/03/09 05:00:45;;;;;;;22.48;9.27;;;;;;;-141.50;100.00;63355.56;5010323;28;20054;-80
2024/03/09 05:03:19;;;;;;;21.27;8.73;;;;;;;-141.50;100.00;63355.56;5011812;28;20053;-79
2024/03/09 05:05:47;;;;;;;22.83;9.85;;;;;;;-141.50;100.00;63355.56;4992738;28;20171;-80
2024/03/09 05:08:14;;;;;;;25.35;9.27;;;;;;;-141.50;100.00;63355.56;5011468;28;20099;-79
2024/03/09 05:10:41;;;;;;;24.33;9.10;;;;;;;-141.50;100.00;63355.56;4997011;28;20357;-78
2024/03/09 05:13:08;;;;;;;23.60;9.25;;;;;;;-141.50;100.00;63355.56;4981668;28;20149;-79
2024/03/09 05:15:36;;;;;;;20.75;8.20;;;;;;;-141.50;100.00;63355.56;5005473;28;20117;-80
2024/03/09 05:18:07;;;;;;;25.88;9.48;;;;;;;-141.50;100.00;63355.56;5008945;28;20046;-81
2024/03/09 05:20:36;;;;;;;21.10;9.65;;;;;;;-141.50;100.00;63355.56;4995369;28;20053;-77
2024/03/09 05:23:03;;;;;;;20.58;8.88;;;;;;;-141.50;100.00;63355.56;5008591;28;20124;-78
2024/03/09 05:25:31;;;;;;;24.30;9.68;;;;;;;-141.50;100.00;63355.56;4992618;28;20213;-81
2024/03/09 05:27:58;;;;;;;26.83;10.20;;;;;;;-141.50;100.00;63355.56;5009430;28;20107;-78
2024/03/09 05:30:28;;;;;;;23.15;9.98;;;;;;;-141.50;100.00;63355.56;5010447;28;20050;-78
2024/03/09 05:32:59;;;;;;;27.10;10.27;;;;;;;-141.50;100.00;63355.56;4993733;28;20677;-79
2024/03/09 05:35:28;;;;;;;22.17;9.13;;;;;;;-141.50;100.00;63355.56;5010596;28;20487;-80
2024/03/09 05:37:58;;;;;;;21.70;9.70;;;;;;;-141.50;100.00;63355.56;4992586;28;20058;-79
2024/03/09 05:40:29;;;;;;;19.05;8.90;;;;;;;-141.50;100.00;63355.56;5009730;28;20046;-81
2024/03/09 05:43:00;;;;;;;22.20;9.07;;;;;;;-141.50;100.00;63355.56;5011497;28;20069;-80
2024/03/09 05:45:27;;;;;;;23.38;9.25;;;;;;;-141.50;100.00;63355.56;4988016;28;20057;-78
2024/03/09 05:47:55;;;;;;;22.38;8.98;;;;;;;-141.50;100.00;63355.56;4991242;28;20545;-81
2024/03/09 05:50:30;;;;;;;22.33;9.90;;;;;;;-141.50;100.00;63355.56;5003438;28;20532;-79
2024/03/09 05:53:01;;;;;;;18.95;8.82;;;;;;;-141.50;100.00;63355.56;5009449;28;20050;-80
2024/03/09 05:55:29;;;;;;;23.48;9.45;;;;;;;-141.50;100.00;63355.56;5010238;28;20443;-77
2024/03/09 05:57:56;;;;;;;19.92;9.20;;;;;;;-141.50;100.00;63355.56;5008543;28;20058;-80
2024/03/09 06:00:29;;;;;;;23.92;9.82;;;;;;;-141.50;100.00;63355.56;4992978;28;20053;-81
2024/03/09 06:03:01;;;;;;;21.77;9.35;;;;;;;-141.50;100.00;63355.56;4991418;28;20111;-80
2024/03/09 06:05:30;;;;;;;24.52;9.50;;;;;;;-141.50;100.00;63355.56;5010298;28;20054;-79
2024/03/09 06:07:58;;;;;;;25.70;9.50;;;;;;;-141.50;100.00;63355.56;4990921;28;20467;-77
2024/03/09 06:10:25;;;;;;;21.52;9.23;;;;;;;-141.50;100.00;63355.56;5014282;28;20071;-78
2024/03/09 06:12:53;;;;;;;23.30;10.27;;;;;;;-141.50;100.00;63355.56;5007641;28;20053;-77
2024/03/09 06:15:22;;;;;;;22.10;9.60;;;;;;;-141.50;100.00;63355.56;4998402;28;20132;-80
2024/03/09 06:17:53;;;;;;;25.40;10.05;;;;;;;-141.50;100.00;63355.56;5009142;28;20061;-79
2024/03/09 06:20:20;;;;;;;21.85;9.65;;;;;;;-141.50;100.00;63355.56;5009450;28;20692;-79
2024/03/09 06:22:47;;;;;;;21.73;9.15;;;;;;;-141.50;100.00;63355.56;4982192;28;20230;-82
2024/03/09 06:25:40;;;;;;;21.65;9.63;;;;;;;-141.50;100.00;63355.56;5009432;28;20073;-81
2024/03/09 06:28:05;;;;;;;20.67;9.05;;;;;;;-141.50;100.00;63355.56;5007257;28;20054;-79
2024/03/09 06:30:32;;;;;;;21.20;9.07;;;;;;;-141.50;100.00;63355.56;5009212;28;20144;-81
2024/03/09 06:33:00;;;;;;;23.48;9.27;;;;;;;-141.50;100.00;63355.56;4993724;28;20080;-78
2024/03/09 06:35:30;;;;;;;23.23;9.52;;;;;;;-141.50;100.00;63355.56;5006404;28;20058;-78
2024/03/09 06:38:08;;;;;;;23.88;9.77;;;;;;;-141.50;100.00;63355.56;5010872;28;20691;-80
2024/03/09 06:40:36;;;;;;;26.45;10.00;;;;;;;-141.50;100.00;63355.56;5014957;28;20046;-78
2024/03/09 06:43:09;;;;;;;24.23;9.82;;;;;;;-141.50;100.00;63355.56;5015858;28;20068;-78
2024/03/09 06:45:37;;;;;;;21.50;9.30;;;;;;;-141.50;100.00;63355.56;5001578;28;20053;-79
2024/03/09 06:48:05;;;;;;;30.33;10.80;;;;;;;-141.50;100.00;63355.56;5008726;28;20088;-79
2024/03/09 06:50:35;;;;;;;22.95;10.52;;;;;;;-141.50;100.00;63355.56;4988509;28;20050;-77
2024/03/09 06:53:02;;;;;;;26.48;10.55;;;;;;;-141.50;100.00;63355.56;5009165;28;20136;-78
2024/03/09 06:55:29;;;;;;;23.00;10.48;;;;;;;-141.50;100.00;63355.56;5010816;28;20061;-80
2024/03/09 06:58:01;;;;;;;25.23;10.57;;;;;;;-141.50;100.00;63355.56;4990247;28;20060;-80
2024/03/09 07:00:31;;;;;;;25.95;10.30;;;;;;;-141.50;100.00;63355.56;5009249;28;20064;-80
2024/03/09 07:02:59;;;;;;;26.33;11.40;;;;;;;-141.50;100.00;63355.56;5007382;28;20112;-81
2024/03/09 07:05:27;;;;;;;27.30;10.73;;;;;;;-141.50;100.00;63355.56;5008434;28;20061;-79
2024/03/09 07:07:55;;;;;;;26.55;10.77;;;;;;;-141.50;100.00;63355.56;4977814;28;20081;-77
2024/03/09 07:10:23;;;;;;;25.52;10.52;;;;;;;-141.50;100.00;63355.56;5011533;28;20113;-77
2024/03/09 07:12:49;;;;;;;27.73;11.50;;;;;;;-141.50;100.00;63355.56;4992534;28;20054;-77
2024/03/09 07:15:16;;;;;;;27.50;11.10;;;;;;;-141.50;100.00;63355.56;5010064;28;20137;-78
2024/03/09 07:17:48;;;;;;;25.70;11.00;;;;;;;-141.50;100.00;63355.56;5007027;28;20085;-77
2024/03/09 07:20:17;;;;;;;24.80;10.75;;;;;;;-141.50;100.00;63355.56;4990507;28;20486;-79
2024/03/09 07:22:50;;;;;;;19.45;9.10;;;;;;;-141.50;100.00;63355.56;4991137;28;20053;-79
2024/03/09 07:25:23;;;;;;;26.05;10.05;;;;;;;-141.50;100.00;63355.56;5009311;28;20591;-82
2024/03/09 07:27:57;;;;;;;24.40;9.68;;;;;;;-141.50;100.00;63355.56;5007404;28;20061;-82
2024/03/09 07:30:25;;;;;;;24.52;9.88;;;;;;;-141.50;100.00;63355.56;5004675;28;20065;-81
2024/03/09 07:32:53;;;;;;;23.27;9.85;;;;;;;-141.50;100.00;63355.56;5006332;28;20058;-78
2024/03/09 07:35:25;;;;;;;23.52;9.75;;;;;;;-141.50;100.00;63355.56;5008807;28;20123;-80
2024/03/09 07:37:53;;;;;;;19.08;8.65;;;;;;;-141.50;100.00;63355.56;4989774;28;20210;-79
2024/03/09 07:40:22;;;;;;;21.67;9.07;;;;;;;-141.50;100.00;63355.56;4990848;28;20104;-78
2024/03/09 07:42:50;;;;;;;21.55;9.40;;;;;;;-141.50;100.00;63355.56;4989002;28;20057;-77
2024/03/09 07:45:17;;;;;;;19.65;8.75;;;;;;;-141.50;100.00;63355.56;5007476;28;20108;-78
2024/03/09 07:47:45;;;;;;;20.63;9.18;;;;;;;-141.50;100.00;63355.56;4986781;28;20073;-80
2024/03/09 07:50:14;;;;;;;22.75;8.95;;;;;;;-141.50;100.00;63355.56;4990038;28;20058;-80
2024/03/09 07:52:49;;;;;;;22.40;9.07;;;;;;;-141.50;100.00;63355.56;5007827;28;20061;-78
2024/03/09 07:55:17;;;;;;;21.00;8.85;;;;;;;-141.50;100.00;63355.56;5006269;28;20060;-81
2024/03/09 07:57:44;;;;;;;21.90;8.63;;;;;;;-141.50;100.00;63355.56;5009944;28;20068;-81
2024/03/09 08:00:22;;;;;;;17.58;7.85;;;;;;;-141.50;100.00;63355.56;5006771;28;20508;-79
2024/03/09 08:02:49;;;;;;;23.00;9.15;;;;;;;-141.50;100.00;63355.56;4994009;28;20123;-79
2024/03/09 08:05:19;;;;;;;18.33;8.00;;;;;;;-141.50;100.00;63355.56;5007589;28;20060;-79
2024/03/09 08:07:47;;;;;;;22.05;8.82;;;;;;;-141.50;100.00;63355.56;4992556;28;20054;-80
2024/03/09 08:10:15;;;;;;;16.73;7.45;;;;;;;-141.50;100.00;63355.56;5005353;28;20183;-80
2024/03/09 08:12:41;;;;;;;21.80;9.10;;;;;;;-141.50;100.00;63355.56;5008629;28;20112;-79
2024/03/09 08:15:08;;;;;;;20.40;8.52;;;;;;;-141.50;100.00;63355.56;5008827;28;20492;-77
2024/03/09 08:17:35;;;;;;;20.40;8.48;;;;;;;-141.50;100.00;63355.56;5009750;28;20054;-78
2024/03/09 08:20:07;;;;;;;18.08;7.78;;;;;;;-141.50;100.00;63355.56;4990852;28;20038;-82
2024/03/09 08:22:39;;;;;;;18.08;8.10;;;;;;;-141.50;100.00;63355.56;5010024;28;20116;-80
2024/03/09 08:25:07;;;;;;;20.02;8.85;;;;;;;-141.50;100.00;63355.56;5005650;28;20057;-81
2024/03/09 08:27:34;;;;;;;18.88;8.25;;;;;;;-141.50;100.00;63355.56;5010104;28;20057;-79
2024/03/09 08:30:03;;;;;;;20.67;8.50;;;;;;;-141.50;100.00;63355.56;5004641;28;20496;-79
2024/03/09 08:32:30;;;;;;;17.30;8.52;;;;;;;-141.50;100.00;63355.56;5004046;28;20049;-77
2024/03/09 08:34:56;;;;;;;18.25;8.55;;;;;;;-141.50;100.00;63355.56;5020555;28;20053;-80
2024/03/09 08:37:25;;;;;;;21.90;9.20;;;;;;;-141.50;100.00;63355.56;5011669;28;20057;-79
2024/03/09 08:39:52;;;;;;;18.27;8.60;;;;;;;-141.50;100.00;63355.56;4990202;28;20061;-80
2024/03/09 08:42:20;;;;;;;18.05;8.75;;;;;;;-141.50;100.00;63355.56;4981469;28;20108;-79
2024/03/09 08:44:46;;;;;;;17.23;8.23;;;;;;;-141.50;100.00;63355.56;5010427;28;20077;-78
2024/03/09 08:47:13;;;;;;;21.38;9.02;;;;;;;-141.50;100.00;63355.56;4993261;28;20049;-78
2024/03/09 08:49:41;;;;;;;22.15;8.60;;;;;;;-141.50;100.00;63355.56;5009054;28;20084;-78
2024/03/09 08:52:13;;;;;;;20.05;8.98;;;;;;;-141.50;100.00;63355.56;5002807;28;20077;-78
2024/03/09 08:54:44;;;;;;;18.65;8.57;;;;;;;-141.50;100.00;63355.56;5008465;28;20120;-79
2024/03/09 08:57:11;;;;;;;21.08;9.38;;;;;;;-141.50;100.00;63355.56;4984744;28;20112;-77
2024/03/09 08:59:48;;;;;;;17.08;8.70;;;;;;;-141.50;100.00;63355.56;4991672;28;20146;-77
2024/03/09 09:02:18;;;;;;;18.52;8.80;;;;;;;-141.50;100.00;63355.56;5008153;28;20049;-78
2024/03/09 09:04:47;;;;;;;18.83;9.32;;;;;;;-141.50;100.00;63355.56;5013904;28;20064;-79
2024/03/09 09:07:15;;;;;;;18.67;8.65;;;;;;;-141.50;100.00;63355.56;5010445;28;20646;-78
2024/03/09 09:09:42;;;;;;;23.13;9.63;;;;;;;-141.50;100.00;63355.56;5006393;28;20073;-80
2024/03/09 09:12:10;;;;;;;20.90;8.40;;;;;;;-141.50;100.00;63355.56;4991022;28;20100;-79
2024/03/09 09:14:37;;;;;;;19.52;8.65;;;;;;;-141.50;100.00;63355.56;5010115;28;20057;-79
2024/03/09 09:17:07;;;;;;;17.80;8.02;;;;;;;-141.50;100.00;63355.56;5007286;28;20038;-79
2024/03/09 09:19:34;;;;;;;15.82;7.85;;;;;;;-141.50;100.00;63355.56;4992266;28;20053;-80
2024/03/09 09:22:02;;;;;;;20.40;8.98;;;;;;;-141.50;100.00;63355.56;5008823;28;20042;-80
2024/03/09 09:24:29;;;;;;;17.52;8.48;;;;;;;-141.50;100.00;63355.56;5015584;28;20054;-79
2024/03/09 09:26:58;;;;;;;20.80;9.90;;;;;;;-141.50;100.00;63355.56;4994216;28;20062;-81
2024/03/09 09:29:28;;;;;;;19.13;8.60;;;;;;;-141.50;100.00;63355.56;4993019;28;20595;-80
2024/03/09 09:31:56;;;;;;;19.58;9.23;;;;;;;-141.50;100.00;63355.56;5010813;28;20054;-79
2024/03/09 09:34:23;;;;;;;16.25;7.20;;;;;;;-141.50;100.00;63355.56;5012083;28;20057;-79
2024/03/09 09:36:53;;;;;;;16.02;7.75;;;;;;;-141.50;100.00;63355.56;5012468;28;20085;-80
2024/03/09 09:39:24;;;;;;;18.50;8.48;;;;;;;-141.50;100.00;63355.56;5003589;28;20077;-78
2024/03/09 09:41:56;;;;;;;18.05;8.38;;;;;;;-141.50;100.00;63355.56;4987846;28;20555;-79
2024/03/09 09:44:28;;;;;;;18.15;8.52;;;;;;;-141.50;100.00;63355.56;5006011;28;20061;-79
2024/03/09 09:46:55;;;;;;;17.40;7.45;;;;;;;-141.50;100.00;63355.56;4992413;28;20152;-78
2024/03/09 09:49:22;;;;;;;18.02;8.50;;;;;;;-141.50;100.00;63355.56;4990001;28;20146;-78
2024/03/09 09:51:56;;;;;;;16.27;7.75;;;;;;;-141.50;100.00;63355.56;4993304;28;20478;-80
2024/03/09 09:54:26;;;;;;;16.27;8.13;;;;;;;-141.50;100.00;63355.56;5011027;28;20068;-80
2024/03/09 09:56:55;;;;;;;17.70;8.50;;;;;;;-141.50;100.00;63355.56;4994271;28;20065;-80
2024/03/09 09:59:25;;;;;;;17.15;8.02;;;;;;;-141.50;100.00;63355.56;4983179;28;20758;-79
2024/03/09 10:01:52;;;;;;;17.98;8.18;;;;;;;-141.50;100.00;63355.56;4995778;28;20138;-77
2024/03/09 10:04:20;;;;;;;17.15;8.45;;;;;;;-141.50;100.00;63355.56;5008203;28;20432;-77
2024/03/09 10:06:47;;;;;;;17.80;7.78;;;;;;;-141.50;100.00;63355.56;4975485;28;20085;-78
2024/03/09 10:09:33;;;;;;;22.60;9.55;;;;;;;-141.50;100.00;63355.56;5009735;28;20599;-79
2024/03/09 10:12:04;;;;;;;16.73;8.13;;;;;;;-141.50;100.00;63355.56;4990180;28;20041;-77
2024/03/09 10:14:31;;;;;;;20.50;9.82;;;;;;;-141.50;100.00;63355.56;5010800;28;20547;-78
2024/03/09 10:17:09;;;;;;;17.85;8.68;;;;;;;-141.50;100.00;63355.56;4992712;28;20083;-78
2024/03/09 10:19:37;;;;;;;19.00;9.52;;;;;;;-141.50;100.00;63355.56;4993993;28;20080;-79
2024/03/09 10:22:04;;;;;;;14.50;7.50;;;;;;;-141.50;100.00;63355.56;5010020;28;20435;-79
2024/03/09 10:24:31;;;;;;;17.10;7.85;;;;;;;-141.50;100.00;63355.56;5010137;28;20045;-78
2024/03/09 10:27:06;;;;;;;16.40;8.05;;;;;;;-141.50;100.00;63355.56;5009362;28;20058;-79
2024/03/09 10:29:32;;;;;;;17.75;8.93;;;;;;;-141.50;100.00;63355.56;4992502;28;20073;-79
2024/03/09 10:32:00;;;;;;;14.88;7.93;;;;;;;-141.50;100.00;63355.56;4992342;28;20466;-78
2024/03/09 10:34:30;;;;;;;14.30;7.20;;;;;;;-141.50;100.00;63355.56;5009278;28;20459;-78
2024/03/09 10:37:03;;;;;;;15.63;7.82;;;;;;;-141.50;100.00;63355.56;4993527;28;20092;-78
2024/03/09 10:39:32;;;;;;;16.77;8.35;;;;;;;-141.50;100.00;63355.56;4970365;28;20046;-79
2024/03/09 10:41:59;;;;;;;16.27;7.65;;;;;;;-141.50;100.00;63355.56;5009589;28;20116;-80
2024/03/09 10:44:28;;;;;;;18.75;8.40;;;;;;;-141.50;100.00;63355.56;4992224;28;20096;-80
2024/03/09 10:47:02;;;;;;;16.45;7.78;;;;;;;-141.50;100.00;63355.56;5008585;28;20571;-78
2024/03/09 10:49:30;;;;;;;17.92;8.63;;;;;;;-141.50;100.00;63355.56;4992230;28;20048;-80
2024/03/09 10:51:58;;;;;;;16.83;7.97;;;;;;;-141.50;100.00;63355.56;5009199;28;20093;-79
2024/03/09 10:54:59;;;;;;;13.55;7.00;;;;;;;-141.50;100.00;63355.56;5009937;28;20061;-78
2024/03/09 10:57:29;;;;;;;15.40;7.32;;;;;;;-141.50;100.00;63355.56;4988429;28;20058;-78
2024/03/09 10:59:57;;;;;;;15.13;7.07;;;;;;;-141.50;100.00;63355.56;4988619;28;20419;-77
2024/03/09 11:02:25;;;;;;;16.70;7.57;;;;;;;-141.50;100.00;63355.56;5005255;28;20050;-79
2024/03/09 11:04:54;;;;;;;14.05;7.30;;;;;;;-141.50;100.00;63355.56;5001253;28;20566;-77
2024/03/09 11:07:21;;;;;;;16.48;7.85;;;;;;;-141.50;100.00;63355.56;4992436;28;20069;-79
2024/03/09 11:09:50;;;;;;;18.20;8.73;;;;;;;-141.50;100.00;63355.56;4992151;28;20120;-77